Terminal Aerodrome Forecast
Issued by NWS Mobile, AL

Home | Current Version | Previous Version | Text Only | Print | Product List | Glossary On
Versions: 1 2 3 4 5 6 7 8 9 10 11 12 13
000
FTUS44 KMOB 301120
TAFMOB
TAF
KMOB 301120Z 3012/3112 27003KT P6SM SKC
     FM301500 34005KT P6SM FEW250
     FM302100 23006KT P6SM VCTS FEW030CB SCT250
     FM310100 VRB03KT P6SM SKC=

USA.gov is the U.S. government's official web portal to all federal, state and local government web resources and services.